Time;durP1;ratioP1;P1;durP2;ratioP2;P2;SDS_P1;SDS_P2;PMS_P1;PMS_P2;Temp;Humidity;BMP_temperature;BMP_pressure;BME280_temperature;BME280_humidity;BME280_pressure;Samples;Min_cycle;Max_cycle;Signal;HPM_P1;HPM_P2
2022/04/25 04:33:15;;;;;;;;;23.50;20.00;;;;;14.42;54.17;100504.41;5079384;28;46706;-54
2022/04/25 04:38:24;;;;;;;;;20.00;19.00;;;;;14.36;54.42;100516.44;5082043;28;45289;-52
2022/04/25 04:40:49;;;;;;;;;21.00;19.25;;;;;14.30;54.37;100515.00;5082129;28;45286;-54
2022/04/25 04:43:15;;;;;;;;;23.50;18.75;;;;;14.23;54.65;100518.19;5082122;28;45166;-50
2022/04/25 04:45:43;;;;;;;;;22.75;21.50;;;;;14.25;54.60;100521.66;5081712;28;45319;-51
2022/04/25 04:48:08;;;;;;;;;20.50;19.50;;;;;14.25;54.47;100518.97;5081448;28;45357;-52
2022/04/25 04:50:33;;;;;;;;;26.00;19.25;;;;;14.21;54.92;100525.50;5081946;28;45379;-50
2022/04/25 04:53:00;;;;;;;;;21.00;18.50;;;;;14.22;55.22;100532.63;5081486;28;45562;-50
2022/04/25 04:55:26;;;;;;;;;25.25;19.75;;;;;14.23;54.86;100537.94;5080679;28;46254;-51
2022/04/25 04:57:52;;;;;;;;;22.00;21.00;;;;;14.16;55.26;100528.50;5081707;28;45327;-53
2022/04/25 05:00:18;;;;;;;;;21.50;20.25;;;;;14.21;55.32;100539.84;5080752;28;45308;-53
2022/04/25 05:02:44;;;;;;;;;24.00;23.00;;;;;14.22;54.99;100532.63;5080794;28;45463;-51
2022/04/25 05:05:12;;;;;;;;;26.75;22.00;;;;;14.14;55.34;100535.81;5081419;28;46218;-49
2022/04/25 05:07:38;;;;;;;;;22.25;21.50;;;;;14.16;55.16;100544.69;5081234;28;45367;-52
2022/04/25 05:10:06;;;;;;;;;28.00;25.50;;;;;14.19;54.92;100549.88;5081538;28;45356;-50
2022/04/25 05:12:43;;;;;;;;;29.00;26.75;;;;;14.13;55.48;100544.00;5080082;28;45510;-51
2022/04/25 05:15:09;;;;;;;;;29.00;27.00;;;;;14.10;55.64;100546.91;5080477;28;46061;-50
2022/04/25 05:17:34;;;;;;;;;32.25;28.25;;;;;14.10;55.86;100557.69;5081302;28;45297;-52
2022/04/25 05:19:59;;;;;;;;;30.00;24.75;;;;;14.05;55.30;100551.72;5081620;28;45266;-49
2022/04/25 05:22:24;;;;;;;;;31.00;27.50;;;;;14.09;55.41;100569.44;5080213;28;45544;-49
2022/04/25 05:24:50;;;;;;;;;31.00;29.75;;;;;14.08;55.96;100565.00;5081356;28;45323;-50
2022/04/25 05:27:16;;;;;;;;;32.00;24.50;;;;;14.09;55.74;100570.31;5071600;28;45667;-53
2022/04/25 05:29:41;;;;;;;;;34.00;27.50;;;;;14.05;56.02;100559.78;5081405;28;45408;-51
2022/04/25 05:32:07;;;;;;;;;30.50;28.00;;;;;14.06;55.98;100567.78;5080779;28;45238;-50
2022/04/25 05:34:32;;;;;;;;;27.25;26.25;;;;;14.00;56.04;100560.09;5081133;28;45715;-48
2022/04/25 05:36:57;;;;;;;;;34.00;29.50;;;;;14.03;55.85;100573.41;5079983;28;45242;-49
2022/04/25 05:39:23;;;;;;;;;31.50;28.50;;;;;13.93;55.96;100562.31;5081180;28;45348;-57
2022/04/25 05:41:48;;;;;;;;;36.25;30.75;;;;;13.96;56.26;100574.72;5080934;28;45490;-53
2022/04/25 05:44:14;;;;;;;;;29.50;25.50;;;;;13.91;55.84;100575.00;5081101;28;45990;-54
2022/04/25 05:46:39;;;;;;;;;31.50;29.50;;;;;13.87;55.90;100567.19;5080651;28;45257;-53
2022/04/25 05:51:58;;;;;;;;;36.00;31.50;;;;;14.01;56.24;100589.66;5080593;28;45489;-52
2022/04/25 05:54:24;;;;;;;;;36.75;29.25;;;;;14.01;55.94;100596.88;5071319;28;46030;-54
2022/04/25 05:56:49;;;;;;;;;42.75;33.25;;;;;14.02;56.01;100596.78;5076240;28;45328;-53
2022/04/25 05:59:14;;;;;;;;;37.25;30.50;;;;;14.06;55.85;100599.28;5080520;28;45388;-55
2022/04/25 06:01:40;;;;;;;;;37.50;32.25;;;;;14.06;56.06;100596.56;5080385;28;45293;-67
2022/04/25 06:04:05;;;;;;;;;30.00;29.25;;;;;14.12;56.21;100605.13;5080503;28;46358;-65
2022/04/25 06:06:31;;;;;;;;;33.00;30.00;;;;;14.19;55.76;100613.72;5080288;28;45405;-60
2022/04/25 06:08:56;;;;;;;;;40.25;33.75;;;;;14.18;55.34;100620.94;5075409;28;45482;-60
2022/04/25 06:11:22;;;;;;;;;37.00;31.75;;;;;14.19;55.80;100619.13;5075305;28;45443;-60
2022/04/25 06:13:50;;;;;;;;;34.75;32.00;;;;;14.17;55.32;100612.94;5077992;28;46772;-60
2022/04/25 06:16:16;;;;;;;;;38.00;34.75;;;;;14.16;55.20;100606.69;5077795;28;45493;-61
2022/04/25 06:18:41;;;;;;;;;36.50;33.75;;;;;14.27;54.99;100620.38;5078335;28;45307;-61
2022/04/25 06:21:07;;;;;;;;;37.50;31.50;;;;;14.33;54.84;100621.81;5077753;28;45255;-61
2022/04/25 06:23:32;;;;;;;;;39.00;34.00;;;;;14.34;54.60;100620.84;5077798;28;45406;-61
2022/04/25 06:25:58;;;;;;;;;33.25;32.50;;;;;14.34;54.52;100620.84;5078034;28;45250;-60
2022/04/25 06:28:26;;;;;;;;;39.50;34.75;;;;;14.32;54.07;100618.25;5076380;28;45594;-60
2022/04/25 06:30:52;;;;;;;;;43.50;34.50;;;;;14.34;54.44;100623.53;5077646;28;45442;-60
2022/04/25 06:33:17;;;;;;;;;43.75;34.50;;;;;14.32;54.74;100630.84;5076901;28;46183;-61
2022/04/25 06:35:44;;;;;;;;;40.25;35.50;;;;;14.29;54.78;100631.06;5077058;28;45405;-61
2022/04/25 06:38:09;;;;;;;;;37.25;29.00;;;;;14.33;54.14;100632.59;5077433;28;45261;-61
2022/04/25 06:40:35;;;;;;;;;40.75;34.50;;;;;14.31;54.55;100638.06;5077887;28;45483;-61
2022/04/25 06:43:00;;;;;;;;;30.50;28.00;;;;;14.31;54.35;100640.78;5076995;28;46001;-59
2022/04/25 06:45:26;;;;;;;;;36.00;33.00;;;;;14.31;54.47;100637.22;5077734;28;45250;-61
2022/04/25 06:47:52;;;;;;;;;47.50;38.50;;;;;14.29;54.55;100642.69;5077319;28;45462;-60
2022/04/25 06:50:18;;;;;;;;;42.25;33.25;;;;;14.33;54.17;100640.69;5077749;28;45501;-59
2022/04/25 06:52:44;;;;;;;;;38.50;34.75;;;;;14.22;54.64;100621.59;5076268;28;46192;-60
2022/04/25 06:55:10;;;;;;;;;34.50;31.75;;;;;14.31;54.23;100637.22;5063997;28;45497;-60
2022/04/25 06:57:36;;;;;;;;;37.75;32.75;;;;;14.36;54.50;100649.47;5076897;28;45399;-60
2022/04/25 07:00:04;;;;;;;;;48.00;35.25;;;;;14.36;53.96;100646.75;5079173;28;45301;-61
2022/04/25 07:02:29;;;;;;;;;35.00;30.75;;;;;14.38;54.33;100652.03;5079393;28;45300;-61
2022/04/25 07:04:55;;;;;;;;;38.50;33.25;;;;;14.41;54.07;100645.63;5077218;28;45406;-60
2022/04/25 07:07:21;;;;;;;;;44.25;36.75;;;;;14.39;53.85;100640.31;5079343;28;45390;-60
2022/04/25 07:09:47;;;;;;;;;41.00;34.25;;;;;14.37;53.70;100645.78;5078901;28;46137;-60
2022/04/25 07:12:12;;;;;;;;;36.50;34.00;;;;;14.45;54.14;100652.56;5079442;28;46131;-48
2022/04/25 07:14:37;;;;;;;;;48.25;35.25;;;;;14.42;54.05;100656.31;5079009;28;45211;-70
2022/04/25 07:17:03;;;;;;;;;39.00;34.00;;;;;14.42;53.70;100656.31;5061187;28;45758;-72
2022/04/25 07:19:29;;;;;;;;;38.75;34.75;;;;;14.50;53.86;100659.41;5078855;28;45358;-72
2022/04/25 07:30:07;;;;;;;;;43.00;35.75;;;;;14.54;53.17;100649.28;5078475;28;45368;-71
2022/04/25 07:32:33;;;;;;;;;38.75;35.50;;;;;14.61;53.39;100669.50;5076689;28;45423;-71
2022/04/25 07:35:04;;;;;;;;;41.75;35.00;;;;;14.64;53.17;100680.97;5078662;28;45429;-59
2022/04/25 07:37:29;;;;;;;;;44.00;35.00;;;;;14.70;52.88;100679.72;5078622;28;45326;-59
2022/04/25 07:39:56;;;;;;;;;38.50;33.00;;;;;14.70;52.88;100671.63;5078159;28;45562;-60
2022/04/25 07:42:21;;;;;;;;;32.00;30.50;;;;;14.80;52.08;100683.53;5078619;28;46341;-60
2022/04/25 07:44:47;;;;;;;;;40.00;35.00;;;;;14.76;52.23;100676.63;5078901;28;45426;-59
2022/04/25 07:47:13;;;;;;;;;46.75;36.75;;;;;14.75;52.19;100667.66;5078479;28;45494;-60
2022/04/25 07:49:40;;;;;;;;;51.00;37.00;;;;;14.90;51.89;100689.22;5060906;28;45429;-60
2022/04/25 07:52:06;;;;;;;;;43.00;35.00;;;;;14.92;51.88;100692.69;5078274;28;45410;-59
2022/04/25 07:54:31;;;;;;;;;45.50;35.25;;;;;14.88;51.89;100669.56;5078561;28;45740;-59
2022/04/25 07:56:57;;;;;;;;;40.75;35.50;;;;;15.01;52.08;100684.00;5078996;28;45392;-59
2022/04/25 07:59:22;;;;;;;;;43.50;36.00;;;;;15.06;52.06;100695.34;5078223;28;45483;-59
2022/04/25 08:01:48;;;;;;;;;37.50;34.75;;;;;15.10;52.19;100691.50;5078458;28;45542;-59
2022/04/25 08:04:13;;;;;;;;;40.25;34.25;;;;;15.15;51.89;100692.91;5078956;28;45334;-60
2022/04/25 08:06:39;;;;;;;;;39.25;35.25;;;;;15.16;51.58;100691.09;5078500;28;45511;-60
2022/04/25 08:09:05;;;;;;;;;45.50;35.25;;;;;15.15;51.41;100694.75;5078723;28;45356;-59
2022/04/25 08:11:31;;;;;;;;;39.00;35.00;;;;;15.13;51.43;100699.41;5078348;28;46187;-60
2022/04/25 08:19:24;;;;;;;;;47.00;34.50;;;;;15.27;51.30;100707.47;5077199;28;45679;-59
2022/04/25 08:21:50;;;;;;;;;40.75;33.25;;;;;15.34;51.35;100706.09;5077893;28;46167;-59
2022/04/25 08:24:17;;;;;;;;;47.00;35.75;;;;;15.38;50.60;100712.16;5078441;28;45335;-59
2022/04/25 08:26:42;;;;;;;;;45.25;36.50;;;;;15.39;50.61;100717.47;5077993;28;45311;-59
2022/04/25 08:29:08;;;;;;;;;44.25;37.00;;;;;15.38;50.60;100713.03;5077434;28;45508;-59
2022/04/25 08:31:35;;;;;;;;;41.25;36.00;;;;;15.35;50.77;100712.34;5077245;28;45340;-61
2022/04/25 08:34:02;;;;;;;;;49.00;36.50;;;;;15.38;50.48;100722.97;5078117;28;45364;-58
2022/04/25 08:36:28;;;;;;;;;39.75;37.50;;;;;15.28;51.07;100711.03;5078337;28;45314;-60
2022/04/25 08:38:53;;;;;;;;;43.25;36.00;;;;;15.21;50.84;100704.31;5074683;28;45546;-67
2022/04/25 08:41:30;;;;;;;;;49.50;34.75;;;;;15.25;50.75;100720.19;5078225;28;46134;-64
2022/04/25 08:43:57;;;;;;;;;45.50;36.75;;;;;15.25;50.98;100724.72;5077538;28;45291;-65
2022/04/25 08:46:23;;;;;;;;;39.50;34.00;;;;;15.34;50.90;100733.09;5078132;28;45375;-64
2022/04/25 08:48:49;;;;;;;;;44.00;35.25;;;;;15.34;50.48;100727.69;5077973;28;45404;-63
2022/04/25 08:51:15;;;;;;;;;41.25;35.00;;;;;15.43;50.59;100737.03;5077410;28;46400;-65
2022/04/25 08:53:44;;;;;;;;;35.25;34.25;;;;;15.47;50.46;100736.75;5077448;28;45383;-63
2022/04/25 08:56:10;;;;;;;;;42.00;36.00;;;;;15.56;50.47;100739.84;5078218;28;45508;-64
2022/04/25 08:58:41;;;;;;;;;42.75;37.00;;;;;15.60;49.78;100736.81;5079956;28;46171;-64
2022/04/25 09:01:09;;;;;;;;;47.00;36.50;;;;;15.61;49.76;100749.34;5081457;28;46212;-64
2022/04/25 09:03:35;;;;;;;;;34.00;27.25;;;;;15.46;49.88;100744.94;5081491;28;45465;-64
2022/04/25 09:06:00;;;;;;;;;40.25;36.25;;;;;15.29;50.70;100745.19;5081338;28;45174;-62
2022/04/25 09:08:25;;;;;;;;;44.25;34.00;;;;;15.30;51.04;100746.91;5081143;28;45384;-64
2022/04/25 09:12:09;;;;;;;;;42.25;34.00;;;;;15.29;50.74;100743.34;5081221;28;46115;-65
2022/04/25 09:13:36;;;;;;;;;42.75;35.25;;;;;15.25;50.62;100747.19;5080939;28;45258;-65
2022/04/25 09:16:02;;;;;;;;;45.25;37.00;;;;;15.24;50.74;100750.00;5080999;28;45287;-65
2022/04/25 09:18:28;;;;;;;;;42.50;36.00;;;;;15.25;50.95;100739.09;5081265;28;45237;-63
2022/04/25 09:20:56;;;;;;;;;50.50;40.75;;;;;15.38;50.74;100742.75;5081075;28;45331;-63
2022/04/25 09:23:22;;;;;;;;;42.50;36.25;;;;;15.48;50.38;100746.56;5080711;28;45361;-64
2022/04/25 09:26:11;;;;;;;;;52.00;38.00;;;;;15.55;50.22;100746.19;5062975;28;45783;-65
2022/04/25 09:28:49;;;;;;;;;49.50;38.00;;;;;15.57;50.20;100742.41;5073657;28;45347;-63
2022/04/25 09:31:16;;;;;;;;;42.25;34.75;;;;;15.56;49.94;100747.94;5080805;28;46637;-65
2022/04/25 09:33:42;;;;;;;;;45.25;36.00;;;;;15.59;50.11;100751.28;5079283;28;45312;-63
2022/04/25 09:36:08;;;;;;;;;49.25;38.75;;;;;15.61;49.63;100751.19;5080866;28;45407;-63
2022/04/25 09:38:34;;;;;;;;;40.50;36.25;;;;;15.66;50.14;100751.75;5080280;28;45557;-65
2022/04/25 09:41:01;;;;;;;;;47.25;36.75;;;;;15.64;50.32;100748.28;5080113;28;45386;-64
2022/04/25 09:43:31;;;;;;;;;44.50;35.75;;;;;15.70;49.48;100750.56;5080862;28;45283;-64
2022/04/25 09:46:15;;;;;;;;;33.25;32.25;;;;;15.68;49.30;100737.16;5080858;28;45390;-64
2022/04/25 09:48:43;;;;;;;;;42.50;37.00;;;;;15.83;49.26;100765.00;5079935;28;45553;-64
2022/04/25 09:51:12;;;;;;;;;44.75;35.75;;;;;15.82;49.25;100756.00;5080089;28;46330;-64
2022/04/25 09:53:55;;;;;;;;;43.00;35.00;;;;;15.89;49.48;100760.06;5074388;28;45436;-65
2022/04/25 09:56:22;;;;;;;;;40.25;36.25;;;;;15.96;49.22;100762.34;5074693;28;45302;-63
2022/04/25 09:59:18;;;;;;;;;36.75;32.75;;;;;15.96;49.23;100762.34;5080660;28;45352;-62
2022/04/25 10:01:45;;;;;;;;;33.75;31.25;;;;;15.97;48.56;100764.06;5062988;28;45922;-64
2022/04/25 10:04:34;;;;;;;;;39.50;34.50;;;;;15.98;49.12;100763.09;5079561;28;45426;-63
2022/04/25 10:07:01;;;;;;;;;34.50;31.25;;;;;15.96;48.56;100756.94;5080504;28;45296;-63
2022/04/25 10:09:32;;;;;;;;;37.25;33.50;;;;;16.03;48.46;100767.22;5080129;28;45294;-64
2022/04/25 10:12:00;;;;;;;;;35.50;29.25;;;;;16.08;48.21;100773.16;5080320;28;46562;-64
2022/04/25 10:14:27;;;;;;;;;40.75;33.00;;;;;16.13;48.38;100768.34;5079197;28;45283;-64
2022/04/25 10:16:55;;;;;;;;;33.25;30.50;;;;;16.18;48.20;100766.16;5080498;28;45393;-63
2022/04/25 10:19:21;;;;;;;;;34.75;30.75;;;;;16.26;47.92;100766.50;5080129;28;46048;-64
2022/04/25 10:21:48;;;;;;;;;29.25;28.25;;;;;16.25;47.43;100767.47;5079612;28;46963;-64
2022/04/25 10:24:15;;;;;;;;;31.75;30.50;;;;;16.33;47.71;100771.50;5079985;28;45415;-64
2022/04/25 10:26:41;;;;;;;;;36.50;28.00;;;;;16.35;46.62;100770.41;5074066;28;45224;-64
2022/04/25 10:29:13;;;;;;;;;28.00;22.25;;;;;16.40;46.61;100779.09;5076721;28;45398;-59
2022/04/25 10:31:42;;;;;;;;;28.00;23.75;;;;;16.50;47.11;100768.50;5079659;28;45407;-59
2022/04/25 10:34:09;;;;;;;;;28.25;26.50;;;;;16.65;45.53;100778.28;5079311;28;45343;-61
2022/04/25 10:36:37;;;;;;;;;32.00;27.75;;;;;16.81;45.51;100772.63;5079975;28;45331;-61
2022/04/25 10:39:20;;;;;;;;;26.75;22.75;;;;;16.95;45.67;100769.78;5080120;28;45556;-60
2022/04/25 10:44:51;;;;;;;;;38.75;34.25;;;;;17.03;44.85;100768.25;5080100;28;45383;-60
2022/04/25 10:47:21;;;;;;;;;34.25;28.50;;;;;16.95;45.76;100770.66;5080243;28;45333;-61
2022/04/25 10:49:53;;;;;;;;;34.75;26.50;;;;;16.95;45.18;100765.25;5079850;28;45375;-61
2022/04/25 10:55:34;;;;;;;;;25.25;25.00;;;;;17.01;44.93;100777.50;5066284;28;45371;-60
2022/04/25 10:58:02;;;;;;;;;26.50;22.50;;;;;17.06;44.24;100778.03;5079769;28;45395;-60
2022/04/25 11:00:45;;;;;;;;;28.25;24.00;;;;;17.13;43.56;100770.31;5079647;28;45205;-58
2022/04/25 11:03:23;;;;;;;;;23.75;20.25;;;;;17.20;43.15;100768.88;5079738;28;47005;-59
2022/04/25 11:05:50;;;;;;;;;21.75;20.75;;;;;17.23;43.11;100768.66;5078615;28;45238;-59
2022/04/25 11:08:15;;;;;;;;;25.75;20.50;;;;;17.23;42.87;100772.25;5079445;28;45320;-61
2022/04/25 11:10:42;;;;;;;;;21.00;18.25;;;;;17.28;42.50;100771.88;5079552;28;45434;-61
2022/04/25 11:13:08;;;;;;;;;25.00;23.75;;;;;17.35;41.75;100775.91;5079314;28;45414;-72
2022/04/25 11:15:47;;;;;;;;;19.50;14.25;;;;;17.34;42.35;100772.34;5078841;28;45402;-73
2022/04/25 11:18:34;;;;;;;;;24.00;21.00;;;;;17.44;40.82;100772.50;5079851;28;45315;-72
2022/04/25 11:21:07;;;;;;;;;22.00;22.00;;;;;17.44;41.66;100777.06;5078473;28;45577;-72
2022/04/25 11:23:47;;;;;;;;;21.25;19.25;;;;;17.53;41.42;100779.06;5079356;28;45428;-73
2022/04/25 11:26:22;;;;;;;;;22.75;19.25;;;;;17.54;39.52;100778.09;5077246;28;45501;-73
2022/04/25 11:29:03;;;;;;;;;25.00;20.75;;;;;17.55;39.41;100775.28;5073655;28;45420;-73
2022/04/25 11:31:30;;;;;;;;;20.00;16.75;;;;;17.62;39.50;100775.72;5079106;28;45923;-73
2022/04/25 11:33:57;;;;;;;;;20.25;19.50;;;;;17.71;39.63;100767.75;5078968;28;45717;-72
2022/04/25 11:36:24;;;;;;;;;19.50;17.00;;;;;17.72;37.83;100750.53;5079325;28;45458;-73
2022/04/25 11:41:38;;;;;;;;;22.00;18.75;;;;;17.93;38.92;100766.16;5079004;28;45296;-73
2022/04/25 11:44:05;;;;;;;;;17.75;16.50;;;;;18.08;39.30;100765.84;5078908;28;45233;-72
2022/04/25 11:46:32;;;;;;;;;19.25;16.00;;;;;18.28;37.65;100764.31;5078970;28;45398;-72
2022/04/25 11:48:58;;;;;;;;;21.00;18.00;;;;;18.44;37.31;100766.69;5079377;28;45339;-74
2022/04/25 11:51:29;;;;;;;;;14.75;13.00;;;;;18.62;36.07;100768.00;5078792;28;45415;-71
2022/04/25 11:54:00;;;;;;;;;10.75;8.75;;;;;18.83;36.53;100762.69;5071197;28;45404;-71
2022/04/25 11:56:30;;;;;;;;;17.75;16.75;;;;;19.06;35.91;100764.44;5076455;28;45511;-71
2022/04/25 11:58:57;;;;;;;;;18.00;18.00;;;;;19.21;35.76;100756.91;5079162;28;45421;-71
2022/04/25 12:01:39;;;;;;;;;16.50;15.25;;;;;19.48;34.96;100764.69;5078558;28;45379;-71
2022/04/25 12:04:15;;;;;;;;;19.25;16.25;;;;;19.58;33.86;100757.47;5078733;28;46188;-72
2022/04/25 12:06:47;;;;;;;;;15.75;12.00;;;;;19.79;34.29;100763.84;5078584;28;45412;-72
2022/04/25 12:17:49;;;;;;;;;11.50;11.50;;;;;20.41;33.16;100751.34;5078671;28;45270;-73
2022/04/25 12:20:17;;;;;;;;;12.00;12.00;;;;;20.76;32.75;100758.13;5077986;28;45501;-74
2022/04/25 12:22:57;;;;;;;;;13.00;11.75;;;;;20.65;32.53;100763.69;5078133;28;45520;-72
2022/04/25 12:25:29;;;;;;;;;12.50;11.25;;;;;20.53;32.68;100761.16;5078942;28;45390;-72
2022/04/25 12:28:07;;;;;;;;;14.75;11.00;;;;;20.36;32.05;100762.63;5069130;28;45371;-72
2022/04/25 12:31:08;;;;;;;;;15.50;12.50;;;;;20.54;32.16;100755.59;5078423;28;45179;-70
2022/04/25 12:33:45;;;;;;;;;11.00;11.00;;;;;20.54;31.55;100752.00;5080324;28;45570;-72
2022/04/25 12:36:16;;;;;;;;;13.00;10.00;;;;;21.08;30.54;100766.22;5081761;28;45985;-72
2022/04/25 12:38:53;;;;;;;;;12.50;9.50;;;;;21.74;28.66;100757.50;5073758;28;45471;-73
2022/04/25 12:41:30;;;;;;;;;9.25;8.00;;;;;22.35;27.63;100754.53;5046564;28;45391;-72
2022/04/25 12:43:57;;;;;;;;;8.75;7.75;;;;;22.88;28.06;100761.19;5081643;28;45317;-73
2022/04/25 12:46:39;;;;;;;;;13.00;10.75;;;;;23.32;27.25;100758.69;5081818;28;45507;-72
2022/04/25 12:49:10;;;;;;;;;10.00;8.00;;;;;23.56;27.10;100752.72;5082030;28;45234;-74
2022/04/25 12:51:40;;;;;;;;;11.75;9.00;;;;;23.52;26.35;100756.75;5081544;28;45379;-73
2022/04/25 12:54:37;;;;;;;;;11.25;10.50;;;;;23.42;27.02;100751.31;5081535;28;45561;-73
2022/04/25 12:57:15;;;;;;;;;9.50;9.50;;;;;23.76;25.63;100760.63;5070955;28;46168;-72
2022/04/25 12:59:43;;;;;;;;;11.00;10.25;;;;;23.39;26.00;100746.97;5081320;28;45418;-72
2022/04/25 13:02:11;;;;;;;;;11.50;9.75;;;;;22.90;26.70;100744.63;5081604;28;45379;-72
2022/04/25 13:04:53;;;;;;;;;10.00;8.00;;;;;22.50;27.99;100756.66;5081492;28;45512;-70
2022/04/25 13:07:31;;;;;;;;;8.00;7.50;;;;;22.15;27.76;100765.47;5081538;28;45351;-73
2022/04/25 13:09:58;;;;;;;;;10.00;8.25;;;;;22.02;27.89;100767.63;5081428;28;45297;-72
2022/04/25 13:12:35;;;;;;;;;6.00;6.00;;;;;22.05;28.23;100771.91;5081649;28;45329;-72
2022/04/25 13:15:02;;;;;;;;;7.00;7.00;;;;;22.68;27.46;100762.22;5081619;28;45328;-72
2022/04/25 13:17:28;;;;;;;;;11.25;9.00;;;;;23.22;26.33;100750.53;5081195;28;47329;-72
2022/04/25 13:19:53;;;;;;;;;11.25;9.75;;;;;23.79;25.84;100764.06;5081586;28;45450;-72
2022/04/25 13:22:19;;;;;;;;;10.25;8.00;;;;;24.51;24.88;100745.56;5081136;28;45368;-71
2022/04/25 13:24:46;;;;;;;;;8.75;8.75;;;;;25.36;24.23;100748.47;5063061;28;45846;-71
2022/04/25 13:27:11;;;;;;;;;10.50;8.00;;;;;25.55;24.15;100743.59;5080747;28;46382;-70
2022/04/25 13:29:36;;;;;;;;;8.25;7.75;;;;;25.74;23.81;100739.72;5081104;28;45315;-71
2022/04/25 13:32:03;;;;;;;;;6.00;5.75;;;;;26.22;22.70;100744.41;5080886;28;45332;-72
2022/04/25 13:34:30;;;;;;;;;7.50;6.75;;;;;26.94;22.58;100741.81;5080628;28;45538;-72
2022/04/25 13:36:57;;;;;;;;;9.50;8.25;;;;;27.70;21.57;100747.53;5080652;28;45515;-72
2022/04/25 13:39:23;;;;;;;;;6.75;6.75;;;;;28.59;21.08;100743.25;5080062;28;45419;-72
2022/04/25 13:41:48;;;;;;;;;11.25;9.25;;;;;29.31;20.00;100729.72;5080963;28;45347;-71
2022/04/25 13:44:13;;;;;;;;;6.00;6.00;;;;;30.05;18.93;100742.34;5080290;28;45581;-72
2022/04/25 13:46:39;;;;;;;;;6.00;5.75;;;;;30.35;18.11;100736.69;5076051;27;45363;-71
2022/04/25 13:49:04;;;;;;;;;6.50;5.00;;;;;30.80;17.39;100727.91;5069610;28;45360;-72
2022/04/25 13:51:30;;;;;;;;;10.75;6.75;;;;;31.41;17.49;100743.84;5080751;28;45404;-73
2022/04/25 13:53:55;;;;;;;;;5.00;5.00;;;;;31.86;17.05;100740.44;5080949;28;45364;-73
2022/04/25 13:56:20;;;;;;;;;5.25;4.00;;;;;32.09;16.25;100726.19;5079701;28;46322;-73
2022/04/25 13:58:46;;;;;;;;;6.25;5.00;;;;;32.38;15.92;100749.09;5062823;28;45287;-73
2022/04/25 14:01:13;;;;;;;;;6.25;6.00;;;;;32.45;16.13;100734.16;5080938;28;45371;-74
2022/04/25 14:03:39;;;;;;;;;5.00;5.00;;;;;31.80;17.08;100744.06;5080567;28;45755;-76
2022/04/25 14:06:05;;;;;;;;;7.25;5.00;;;;;30.83;17.64;100743.28;5080191;28;45344;-73
2022/04/25 14:08:30;;;;;;;;;6.50;5.25;;;;;30.13;18.78;100752.41;5080727;28;45526;-73
2022/04/25 14:10:55;;;;;;;;;6.00;5.00;;;;;30.07;18.38;100745.78;5080707;28;45368;-73
2022/04/25 14:13:22;;;;;;;;;4.00;4.00;;;;;30.37;17.50;100734.56;5080553;28;45465;-73
2022/04/25 14:15:49;;;;;;;;;5.50;3.75;;;;;30.65;16.46;100738.25;5080143;28;46137;-73
2022/04/25 14:18:15;;;;;;;;;6.25;5.00;;;;;31.00;16.76;100736.38;5080341;28;45382;-74
2022/04/25 14:20:41;;;;;;;;;4.00;4.00;;;;;31.31;16.65;100737.84;5080457;28;45343;-74
2022/04/25 14:23:08;;;;;;;;;5.50;4.25;;;;;30.75;16.21;100724.06;5080246;28;45360;-74
2022/04/25 14:25:34;;;;;;;;;6.25;5.00;;;;;29.94;17.75;100734.56;5080204;28;45611;-75
2022/04/25 14:28:00;;;;;;;;;4.50;3.50;;;;;29.13;18.64;100746.69;5079975;28;45345;-73
2022/04/25 14:30:26;;;;;;;;;5.00;4.00;;;;;28.26;19.05;100750.09;5080425;28;45378;-73
2022/04/25 14:32:53;;;;;;;;;3.75;3.25;;;;;27.50;19.76;100746.25;5080172;28;45350;-73
2022/04/25 14:35:19;;;;;;;;;5.25;4.25;;;;;26.89;19.81;100744.19;5079996;28;45463;-72
2022/04/25 14:37:45;;;;;;;;;4.00;4.00;;;;;26.33;20.23;100751.50;5080208;28;45253;-72
2022/04/25 14:40:12;;;;;;;;;5.50;5.50;;;;;26.07;20.96;100740.63;5080291;28;45516;-74
2022/04/25 14:42:38;;;;;;;;;7.00;5.50;;;;;26.50;20.95;100744.97;5080371;28;45359;-73
2022/04/25 14:45:04;;;;;;;;;3.75;3.75;;;;;26.82;20.56;100740.44;5061438;28;48280;-73
2022/04/25 14:47:30;;;;;;;;;4.00;4.00;;;;;26.87;21.47;100746.28;5072103;28;45681;-72
2022/04/25 14:55:24;;;;;;;;;5.00;5.00;;;;;26.59;21.73;100751.31;5065450;28;45288;-73
2022/04/25 14:57:50;;;;;;;;;4.50;4.00;;;;;26.95;20.82;100746.28;5079799;28;45366;-77
2022/04/25 15:00:20;;;;;;;;;4.75;3.75;;;;;27.37;20.44;100744.06;5078822;28;45387;-75
2022/04/25 15:02:46;;;;;;;;;4.25;2.00;;;;;27.76;20.21;100743.19;5078461;28;45356;-74
2022/04/25 15:05:12;;;;;;;;;2.75;2.50;;;;;27.99;19.63;100744.06;5079785;28;46234;-75
2022/04/25 15:07:38;;;;;;;;;4.00;4.00;;;;;28.16;18.90;100745.69;5079465;28;45331;-72
2022/04/25 15:10:04;;;;;;;;;7.00;5.00;;;;;28.13;19.21;100750.69;5079710;28;45326;-71
2022/04/25 15:12:30;;;;;;;;;3.50;3.50;;;;;28.24;19.08;100753.91;5079601;28;45445;-73
2022/04/25 15:14:55;;;;;;;;;4.75;4.75;;;;;28.32;19.20;100736.47;5079461;28;45391;-73
2022/04/25 15:17:20;;;;;;;;;5.25;3.75;;;;;28.33;18.73;100757.44;5079525;28;45364;-71
2022/04/25 15:19:46;;;;;;;;;4.00;4.00;;;;;27.93;18.95;100753.06;5079802;28;45303;-74
2022/04/25 15:22:11;;;;;;;;;4.25;4.25;;;;;27.96;19.38;100757.38;5078412;28;45593;-73
2022/04/25 15:24:37;;;;;;;;;5.00;3.75;;;;;28.18;18.89;100745.50;5079296;28;46252;-72
2022/04/25 15:27:03;;;;;;;;;5.75;4.25;;;;;27.93;18.89;100743.94;5070477;28;45324;-72
2022/04/25 15:29:28;;;;;;;;;6.00;4.25;;;;;27.64;19.40;100744.66;5078833;28;45451;-71
2022/04/25 15:31:53;;;;;;;;;4.50;4.50;;;;;27.64;19.60;100750.19;5079070;28;45340;-72
2022/04/25 15:34:19;;;;;;;;;5.00;2.50;;;;;27.80;19.90;100744.56;5078933;28;45383;-73
2022/04/25 15:36:45;;;;;;;;;2.00;2.00;;;;;27.70;18.81;100743.94;5079155;28;45352;-70
2022/04/25 15:39:10;;;;;;;;;5.00;4.00;;;;;27.48;19.52;100748.31;5079509;28;45249;-70
2022/04/25 15:41:35;;;;;;;;;3.50;3.50;;;;;27.28;18.93;100742.41;5079124;28;45442;-70
2022/04/25 15:44:00;;;;;;;;;2.25;2.25;;;;;27.28;19.21;100747.03;5078789;28;46073;-70
2022/04/25 15:46:26;;;;;;;;;3.00;3.00;;;;;27.24;20.00;100743.78;5079123;28;45295;-69
2022/04/25 15:48:51;;;;;;;;;3.75;3.50;;;;;27.34;18.86;100738.06;5079097;28;45344;-70
2022/04/25 15:51:17;;;;;;;;;3.50;3.50;;;;;27.48;19.46;100746.41;5078840;28;45307;-69
2022/04/25 15:59:10;;;;;;;;;2.75;2.75;;;;;27.69;18.04;100751.34;5079005;28;45270;-69
2022/04/25 16:01:37;;;;;;;;;3.50;2.00;;;;;27.22;17.18;100748.59;5078588;28;45401;-69
2022/04/25 16:04:02;;;;;;;;;4.00;2.00;;;;;26.62;17.10;100751.84;5079017;28;45934;-69
2022/04/25 16:06:28;;;;;;;;;3.00;2.75;;;;;26.32;17.89;100744.28;5078861;28;45378;-70
2022/04/25 16:08:53;;;;;;;;;2.00;2.00;;;;;26.22;17.73;100747.16;5082663;28;45264;-70
2022/04/25 16:11:19;;;;;;;;;2.00;2.00;;;;;26.33;18.17;100741.38;5082267;28;45310;-70
2022/04/25 16:13:44;;;;;;;;;4.50;4.00;;;;;26.20;18.02;100751.13;5082298;28;45361;-69
2022/04/25 16:16:10;;;;;;;;;4.00;3.00;;;;;25.47;18.34;100743.56;5082117;28;45336;-69
2022/04/25 16:18:35;;;;;;;;;3.75;3.75;;;;;25.00;19.79;100750.56;5081610;28;45533;-69
2022/04/25 16:21:01;;;;;;;;;3.75;2.50;;;;;24.76;20.30;100745.75;5082049;28;45358;-69
2022/04/25 16:23:26;;;;;;;;;3.00;3.00;;;;;24.84;21.50;100752.13;5082001;28;45497;-68
2022/04/25 16:25:52;;;;;;;;;4.00;4.00;;;;;24.97;21.38;100749.00;5081955;28;45533;-69
2022/04/25 16:28:18;;;;;;;;;5.25;3.75;;;;;25.11;21.71;100751.13;5072308;28;45413;-69
2022/04/25 16:30:43;;;;;;;;;4.00;4.00;;;;;25.09;21.67;100761.44;5081559;28;45376;-68
2022/04/25 16:33:08;;;;;;;;;5.75;4.00;;;;;24.96;22.62;100758.25;5081399;28;46432;-69
2022/04/25 16:35:34;;;;;;;;;3.50;3.50;;;;;24.99;22.82;100768.91;5081948;28;45280;-69
2022/04/25 16:37:59;;;;;;;;;3.75;3.75;;;;;24.95;22.48;100762.00;5063599;28;45363;-68